sensor_id;sensor_type;location;lat;lon;timestamp;P1;durP1;ratioP1;P2;durP2;ratioP2
30080;SDS011;16902;50.816;12.828;2023-07-09T00:03:15;10.93;;;10.30;;
30080;SDS011;16902;50.816;12.828;2023-07-09T00:13:28;11.05;;;10.55;;
30080;SDS011;16902;50.816;12.828;2023-07-09T00:18:30;11.88;;;11.27;;
30080;SDS011;16902;50.816;12.828;2023-07-09T00:23:31;12.15;;;11.55;;
30080;SDS011;16902;50.816;12.828;2023-07-09T00:28:34;11.40;;;10.90;;
30080;SDS011;16902;50.816;12.828;2023-07-09T00:33:36;11.63;;;10.90;;
30080;SDS011;16902;50.816;12.828;2023-07-09T00:38:38;12.38;;;11.73;;
30080;SDS011;16902;50.816;12.828;2023-07-09T00:43:44;12.05;;;11.43;;
30080;SDS011;16902;50.816;12.828;2023-07-09T00:48:55;11.30;;;10.70;;
30080;SDS011;16902;50.816;12.828;2023-07-09T00:54:01;11.10;;;10.50;;
30080;SDS011;16902;50.816;12.828;2023-07-09T00:59:22;10.55;;;10.05;;
30080;SDS011;16902;50.816;12.828;2023-07-09T01:04:30;10.90;;;10.43;;
30080;SDS011;16902;50.816;12.828;2023-07-09T01:09:32;10.50;;;9.82;;
30080;SDS011;16902;50.816;12.828;2023-07-09T01:14:37;11.13;;;10.45;;
30080;SDS011;16902;50.816;12.828;2023-07-09T01:19:40;10.68;;;10.18;;
30080;SDS011;16902;50.816;12.828;2023-07-09T01:25:02;10.57;;;10.07;;
30080;SDS011;16902;50.816;12.828;2023-07-09T01:30:12;10.05;;;9.65;;
30080;SDS011;16902;50.816;12.828;2023-07-09T01:35:24;10.20;;;9.75;;
30080;SDS011;16902;50.816;12.828;2023-07-09T01:40:28;10.43;;;9.82;;
30080;SDS011;16902;50.816;12.828;2023-07-09T01:45:33;9.80;;;9.30;;
30080;SDS011;16902;50.816;12.828;2023-07-09T01:50:36;10.45;;;9.93;;
30080;SDS011;16902;50.816;12.828;2023-07-09T01:55:40;9.73;;;9.32;;
30080;SDS011;16902;50.816;12.828;2023-07-09T02:00:42;10.07;;;9.57;;
30080;SDS011;16902;50.816;12.828;2023-07-09T02:05:46;9.77;;;9.27;;
30080;SDS011;16902;50.816;12.828;2023-07-09T02:10:48;9.55;;;9.05;;
30080;SDS011;16902;50.816;12.828;2023-07-09T02:15:51;10.27;;;9.68;;
30080;SDS011;16902;50.816;12.828;2023-07-09T02:20:53;10.23;;;9.73;;
30080;SDS011;16902;50.816;12.828;2023-07-09T02:25:56;10.23;;;9.68;;
30080;SDS011;16902;50.816;12.828;2023-07-09T02:30:58;9.82;;;9.32;;
30080;SDS011;16902;50.816;12.828;2023-07-09T02:36:00;9.32;;;8.82;;
30080;SDS011;16902;50.816;12.828;2023-07-09T02:41:02;9.30;;;8.90;;
30080;SDS011;16902;50.816;12.828;2023-07-09T02:46:04;9.27;;;8.77;;
30080;SDS011;16902;50.816;12.828;2023-07-09T02:51:06;9.52;;;9.02;;
30080;SDS011;16902;50.816;12.828;2023-07-09T02:56:08;9.13;;;8.63;;
30080;SDS011;16902;50.816;12.828;2023-07-09T03:01:10;9.32;;;8.80;;
30080;SDS011;16902;50.816;12.828;2023-07-09T03:06:14;9.15;;;8.75;;
30080;SDS011;16902;50.816;12.828;2023-07-09T03:11:16;8.77;;;8.27;;
30080;SDS011;16902;50.816;12.828;2023-07-09T03:16:18;8.77;;;8.32;;
30080;SDS011;16902;50.816;12.828;2023-07-09T03:21:21;9.52;;;9.13;;
30080;SDS011;16902;50.816;12.828;2023-07-09T03:26:24;9.30;;;8.80;;
30080;SDS011;16902;50.816;12.828;2023-07-09T03:31:29;9.35;;;8.88;;
30080;SDS011;16902;50.816;12.828;2023-07-09T03:36:31;8.93;;;8.55;;
30080;SDS011;16902;50.816;12.828;2023-07-09T03:41:33;8.75;;;8.35;;
30080;SDS011;16902;50.816;12.828;2023-07-09T03:46:36;9.48;;;8.98;;
30080;SDS011;16902;50.816;12.828;2023-07-09T03:51:37;9.07;;;8.60;;
30080;SDS011;16902;50.816;12.828;2023-07-09T03:56:40;8.98;;;8.57;;
30080;SDS011;16902;50.816;12.828;2023-07-09T04:01:42;9.27;;;8.73;;
30080;SDS011;16902;50.816;12.828;2023-07-09T04:06:51;9.77;;;9.32;;
30080;SDS011;16902;50.816;12.828;2023-07-09T04:11:56;9.20;;;8.70;;
30080;SDS011;16902;50.816;12.828;2023-07-09T04:16:57;9.18;;;8.48;;
30080;SDS011;16902;50.816;12.828;2023-07-09T04:21:59;9.13;;;8.52;;
30080;SDS011;16902;50.816;12.828;2023-07-09T04:27:01;8.65;;;8.25;;
30080;SDS011;16902;50.816;12.828;2023-07-09T04:32:05;9.15;;;8.65;;
30080;SDS011;16902;50.816;12.828;2023-07-09T04:37:09;8.82;;;8.23;;
30080;SDS011;16902;50.816;12.828;2023-07-09T04:42:13;8.95;;;8.45;;
30080;SDS011;16902;50.816;12.828;2023-07-09T04:47:19;8.73;;;8.20;;
30080;SDS011;16902;50.816;12.828;2023-07-09T04:52:20;8.73;;;8.23;;
30080;SDS011;16902;50.816;12.828;2023-07-09T04:57:24;9.30;;;8.80;;
30080;SDS011;16902;50.816;12.828;2023-07-09T05:02:26;9.52;;;9.13;;
30080;SDS011;16902;50.816;12.828;2023-07-09T05:07:29;9.52;;;9.02;;
30080;SDS011;16902;50.816;12.828;2023-07-09T05:12:32;9.32;;;8.93;;
30080;SDS011;16902;50.816;12.828;2023-07-09T05:17:34;9.15;;;8.75;;
30080;SDS011;16902;50.816;12.828;2023-07-09T05:22:36;9.57;;;9.15;;
30080;SDS011;16902;50.816;12.828;2023-07-09T05:27:40;9.10;;;8.65;;
30080;SDS011;16902;50.816;12.828;2023-07-09T05:32:42;9.70;;;9.20;;
30080;SDS011;16902;50.816;12.828;2023-07-09T05:37:47;9.82;;;9.30;;
30080;SDS011;16902;50.816;12.828;2023-07-09T05:42:49;9.98;;;9.48;;
30080;SDS011;16902;50.816;12.828;2023-07-09T05:47:51;10.63;;;10.10;;
30080;SDS011;16902;50.816;12.828;2023-07-09T05:52:53;10.70;;;10.20;;
30080;SDS011;16902;50.816;12.828;2023-07-09T05:58:01;11.02;;;10.52;;
30080;SDS011;16902;50.816;12.828;2023-07-09T06:03:04;11.02;;;10.52;;
30080;SDS011;16902;50.816;12.828;2023-07-09T06:08:09;10.80;;;10.30;;
30080;SDS011;16902;50.816;12.828;2023-07-09T06:13:14;11.57;;;10.88;;
30080;SDS011;16902;50.816;12.828;2023-07-09T06:18:16;11.25;;;10.75;;
30080;SDS011;16902;50.816;12.828;2023-07-09T06:23:18;11.00;;;10.60;;
30080;SDS011;16902;50.816;12.828;2023-07-09T06:28:21;12.15;;;11.65;;
30080;SDS011;16902;50.816;12.828;2023-07-09T06:33:26;11.45;;;10.95;;
30080;SDS011;16902;50.816;12.828;2023-07-09T06:38:29;12.35;;;11.85;;
30080;SDS011;16902;50.816;12.828;2023-07-09T06:43:31;12.05;;;11.55;;
30080;SDS011;16902;50.816;12.828;2023-07-09T06:48:33;12.40;;;11.80;;
30080;SDS011;16902;50.816;12.828;2023-07-09T06:53:35;12.63;;;12.13;;
30080;SDS011;16902;50.816;12.828;2023-07-09T06:58:37;12.20;;;11.70;;
30080;SDS011;16902;50.816;12.828;2023-07-09T07:03:43;12.32;;;11.82;;
30080;SDS011;16902;50.816;12.828;2023-07-09T07:08:45;12.38;;;11.88;;
30080;SDS011;16902;50.816;12.828;2023-07-09T07:13:47;13.35;;;12.75;;
30080;SDS011;16902;50.816;12.828;2023-07-09T07:18:53;13.70;;;13.07;;
30080;SDS011;16902;50.816;12.828;2023-07-09T07:23:55;13.52;;;12.93;;
30080;SDS011;16902;50.816;12.828;2023-07-09T07:28:57;13.80;;;13.20;;
30080;SDS011;16902;50.816;12.828;2023-07-09T07:34:00;13.23;;;12.63;;
30080;SDS011;16902;50.816;12.828;2023-07-09T07:39:05;13.80;;;13.10;;
30080;SDS011;16902;50.816;12.828;2023-07-09T07:44:09;12.55;;;12.05;;
30080;SDS011;16902;50.816;12.828;2023-07-09T07:49:11;12.43;;;11.93;;
30080;SDS011;16902;50.816;12.828;2023-07-09T07:54:13;12.60;;;12.10;;
30080;SDS011;16902;50.816;12.828;2023-07-09T07:59:18;12.50;;;12.00;;
30080;SDS011;16902;50.816;12.828;2023-07-09T08:04:20;13.45;;;12.75;;
30080;SDS011;16902;50.816;12.828;2023-07-09T08:09:22;12.88;;;12.38;;
30080;SDS011;16902;50.816;12.828;2023-07-09T08:14:24;13.68;;;13.05;;
30080;SDS011;16902;50.816;12.828;2023-07-09T08:19:26;13.00;;;12.50;;
30080;SDS011;16902;50.816;12.828;2023-07-09T08:24:28;13.90;;;13.30;;
30080;SDS011;16902;50.816;12.828;2023-07-09T08:29:30;13.43;;;12.82;;
30080;SDS011;16902;50.816;12.828;2023-07-09T08:34:37;13.40;;;12.80;;
30080;SDS011;16902;50.816;12.828;2023-07-09T08:50:42;14.50;;;13.80;;
30080;SDS011;16902;50.816;12.828;2023-07-09T08:55:50;13.35;;;12.85;;
30080;SDS011;16902;50.816;12.828;2023-07-09T09:05:57;13.13;;;12.63;;
30080;SDS011;16902;50.816;12.828;2023-07-09T09:16:39;14.00;;;13.40;;
30080;SDS011;16902;50.816;12.828;2023-07-09T09:21:45;14.50;;;13.90;;
30080;SDS011;16902;50.816;12.828;2023-07-09T09:26:48;13.63;;;13.05;;
30080;SDS011;16902;50.816;12.828;2023-07-09T09:31:54;13.13;;;12.63;;
30080;SDS011;16902;50.816;12.828;2023-07-09T09:36:58;13.60;;;13.00;;
30080;SDS011;16902;50.816;12.828;2023-07-09T09:42:00;13.13;;;12.60;;
30080;SDS011;16902;50.816;12.828;2023-07-09T09:47:02;13.13;;;12.63;;
30080;SDS011;16902;50.816;12.828;2023-07-09T09:52:06;13.63;;;13.02;;
30080;SDS011;16902;50.816;12.828;2023-07-09T09:57:16;12.93;;;12.43;;
30080;SDS011;16902;50.816;12.828;2023-07-09T10:02:21;13.60;;;13.00;;
30080;SDS011;16902;50.816;12.828;2023-07-09T10:07:32;12.93;;;12.38;;
30080;SDS011;16902;50.816;12.828;2023-07-09T10:12:45;13.25;;;12.75;;
30080;SDS011;16902;50.816;12.828;2023-07-09T10:39:03;13.82;;;13.20;;
30080;SDS011;16902;50.816;12.828;2023-07-09T10:44:18;14.18;;;13.57;;
30080;SDS011;16902;50.816;12.828;2023-07-09T10:49:31;13.55;;;13.00;;
30080;SDS011;16902;50.816;12.828;2023-07-09T11:00:02;14.43;;;13.82;;
30080;SDS011;16902;50.816;12.828;2023-07-09T11:05:05;13.63;;;13.02;;
30080;SDS011;16902;50.816;12.828;2023-07-09T11:10:22;12.88;;;12.38;;
30080;SDS011;16902;50.816;12.828;2023-07-09T11:15:27;13.48;;;12.90;;
30080;SDS011;16902;50.816;12.828;2023-07-09T11:20:34;13.35;;;12.82;;
30080;SDS011;16902;50.816;12.828;2023-07-09T11:25:47;13.57;;;12.98;;
30080;SDS011;16902;50.816;12.828;2023-07-09T11:41:59;12.02;;;11.52;;
30080;SDS011;16902;50.816;12.828;2023-07-09T11:47:13;12.30;;;11.80;;
30080;SDS011;16902;50.816;12.828;2023-07-09T11:52:43;11.95;;;11.48;;
30080;SDS011;16902;50.816;12.828;2023-07-09T11:58:08;11.45;;;11.05;;
30080;SDS011;16902;50.816;12.828;2023-07-09T12:03:23;12.10;;;11.60;;
30080;SDS011;16902;50.816;12.828;2023-07-09T12:08:32;12.75;;;12.25;;
30080;SDS011;16902;50.816;12.828;2023-07-09T12:13:36;12.25;;;11.75;;
30080;SDS011;16902;50.816;12.828;2023-07-09T12:18:41;12.50;;;12.00;;
30080;SDS011;16902;50.816;12.828;2023-07-09T12:23:43;12.80;;;12.30;;
30080;SDS011;16902;50.816;12.828;2023-07-09T12:28:54;11.52;;;11.13;;
30080;SDS011;16902;50.816;12.828;2023-07-09T12:33:58;12.43;;;11.93;;
30080;SDS011;16902;50.816;12.828;2023-07-09T12:39:01;12.35;;;11.85;;
30080;SDS011;16902;50.816;12.828;2023-07-09T12:44:05;12.43;;;11.93;;
30080;SDS011;16902;50.816;12.828;2023-07-09T12:49:12;12.07;;;11.57;;
30080;SDS011;16902;50.816;12.828;2023-07-09T12:54:23;12.20;;;11.70;;
30080;SDS011;16902;50.816;12.828;2023-07-09T12:59:26;11.60;;;11.20;;
30080;SDS011;16902;50.816;12.828;2023-07-09T13:04:34;11.88;;;11.48;;
30080;SDS011;16902;50.816;12.828;2023-07-09T13:09:47;11.95;;;11.45;;
30080;SDS011;16902;50.816;12.828;2023-07-09T13:14:54;11.35;;;10.95;;
30080;SDS011;16902;50.816;12.828;2023-07-09T13:19:59;11.70;;;11.10;;
30080;SDS011;16902;50.816;12.828;2023-07-09T13:25:01;11.80;;;11.30;;
30080;SDS011;16902;50.816;12.828;2023-07-09T13:30:03;10.90;;;10.50;;
30080;SDS011;16902;50.816;12.828;2023-07-09T13:35:15;11.60;;;11.20;;
30080;SDS011;16902;50.816;12.828;2023-07-09T13:40:18;11.88;;;11.38;;
30080;SDS011;16902;50.816;12.828;2023-07-09T13:45:21;11.50;;;11.05;;
30080;SDS011;16902;50.816;12.828;2023-07-09T13:50:25;11.30;;;10.90;;
30080;SDS011;16902;50.816;12.828;2023-07-09T13:55:26;11.82;;;11.32;;
30080;SDS011;16902;50.816;12.828;2023-07-09T14:00:28;12.05;;;11.55;;
30080;SDS011;16902;50.816;12.828;2023-07-09T14:05:30;11.75;;;11.35;;
30080;SDS011;16902;50.816;12.828;2023-07-09T14:10:31;11.77;;;11.30;;
30080;SDS011;16902;50.816;12.828;2023-07-09T14:15:33;12.50;;;11.90;;
30080;SDS011;16902;50.816;12.828;2023-07-09T14:20:35;12.35;;;11.85;;
30080;SDS011;16902;50.816;12.828;2023-07-09T14:25:37;11.90;;;11.35;;
30080;SDS011;16902;50.816;12.828;2023-07-09T14:30:39;12.10;;;11.60;;
30080;SDS011;16902;50.816;12.828;2023-07-09T14:35:42;12.32;;;11.82;;
30080;SDS011;16902;50.816;12.828;2023-07-09T14:40:46;12.23;;;11.73;;
30080;SDS011;16902;50.816;12.828;2023-07-09T14:45:48;12.15;;;11.68;;
30080;SDS011;16902;50.816;12.828;2023-07-09T14:50:51;12.65;;;12.15;;
30080;SDS011;16902;50.816;12.828;2023-07-09T14:55:55;12.77;;;12.20;;
30080;SDS011;16902;50.816;12.828;2023-07-09T15:00:57;13.07;;;12.50;;
30080;SDS011;16902;50.816;12.828;2023-07-09T15:05:59;12.48;;;11.98;;
30080;SDS011;16902;50.816;12.828;2023-07-09T15:11:02;12.48;;;11.98;;
30080;SDS011;16902;50.816;12.828;2023-07-09T15:16:04;12.60;;;12.10;;
30080;SDS011;16902;50.816;12.828;2023-07-09T15:21:08;13.02;;;12.52;;
30080;SDS011;16902;50.816;12.828;2023-07-09T15:26:14;13.73;;;13.13;;
30080;SDS011;16902;50.816;12.828;2023-07-09T15:31:16;12.43;;;11.95;;
30080;SDS011;16902;50.816;12.828;2023-07-09T15:36:18;13.38;;;12.88;;
30080;SDS011;16902;50.816;12.828;2023-07-09T15:41:20;13.00;;;12.50;;
30080;SDS011;16902;50.816;12.828;2023-07-09T15:46:22;13.68;;;13.07;;
30080;SDS011;16902;50.816;12.828;2023-07-09T15:51:24;13.50;;;12.90;;
30080;SDS011;16902;50.816;12.828;2023-07-09T15:56:29;13.93;;;13.32;;
30080;SDS011;16902;50.816;12.828;2023-07-09T16:01:33;12.68;;;12.18;;
30080;SDS011;16902;50.816;12.828;2023-07-09T16:06:35;13.30;;;12.70;;
30080;SDS011;16902;50.816;12.828;2023-07-09T16:11:45;13.75;;;13.15;;
30080;SDS011;16902;50.816;12.828;2023-07-09T16:16:49;13.90;;;13.30;;
30080;SDS011;16902;50.816;12.828;2023-07-09T16:21:59;13.73;;;13.13;;
30080;SDS011;16902;50.816;12.828;2023-07-09T16:27:04;13.82;;;13.27;;
30080;SDS011;16902;50.816;12.828;2023-07-09T16:32:09;14.30;;;13.70;;
30080;SDS011;16902;50.816;12.828;2023-07-09T16:37:15;14.95;;;14.27;;
30080;SDS011;16902;50.816;12.828;2023-07-09T16:42:20;14.75;;;14.15;;
30080;SDS011;16902;50.816;12.828;2023-07-09T16:47:22;15.10;;;14.18;;
30080;SDS011;16902;50.816;12.828;2023-07-09T16:52:24;14.57;;;13.98;;
30080;SDS011;16902;50.816;12.828;2023-07-09T16:57:29;14.65;;;14.05;;
30080;SDS011;16902;50.816;12.828;2023-07-09T17:02:33;15.20;;;14.55;;
30080;SDS011;16902;50.816;12.828;2023-07-09T17:07:35;14.55;;;13.95;;
30080;SDS011;16902;50.816;12.828;2023-07-09T17:12:37;15.40;;;14.50;;
30080;SDS011;16902;50.816;12.828;2023-07-09T17:17:38;15.25;;;14.55;;
30080;SDS011;16902;50.816;12.828;2023-07-09T17:22:40;14.80;;;14.10;;
30080;SDS011;16902;50.816;12.828;2023-07-09T17:27:42;15.13;;;14.52;;
30080;SDS011;16902;50.816;12.828;2023-07-09T17:32:44;14.85;;;14.25;;
30080;SDS011;16902;50.816;12.828;2023-07-09T17:37:50;15.02;;;14.32;;
30080;SDS011;16902;50.816;12.828;2023-07-09T17:42:54;15.35;;;14.65;;
30080;SDS011;16902;50.816;12.828;2023-07-09T17:47:56;15.85;;;15.15;;
30080;SDS011;16902;50.816;12.828;2023-07-09T17:52:58;15.57;;;14.88;;
30080;SDS011;16902;50.816;12.828;2023-07-09T17:58:00;15.00;;;14.40;;
30080;SDS011;16902;50.816;12.828;2023-07-09T18:03:11;15.20;;;14.50;;
30080;SDS011;16902;50.816;12.828;2023-07-09T18:08:15;14.65;;;14.05;;
30080;SDS011;16902;50.816;12.828;2023-07-09T18:13:18;14.93;;;14.32;;
30080;SDS011;16902;50.816;12.828;2023-07-09T18:18:22;15.23;;;14.63;;
30080;SDS011;16902;50.816;12.828;2023-07-09T18:23:24;15.52;;;14.82;;
30080;SDS011;16902;50.816;12.828;2023-07-09T18:28:30;14.98;;;14.38;;
30080;SDS011;16902;50.816;12.828;2023-07-09T18:33:36;15.40;;;14.57;;
30080;SDS011;16902;50.816;12.828;2023-07-09T18:38:37;15.38;;;14.60;;
30080;SDS011;16902;50.816;12.828;2023-07-09T18:43:39;15.80;;;15.00;;
30080;SDS011;16902;50.816;12.828;2023-07-09T18:48:41;15.15;;;14.45;;
30080;SDS011;16902;50.816;12.828;2023-07-09T18:53:43;15.30;;;14.55;;
30080;SDS011;16902;50.816;12.828;2023-07-09T18:58:45;19.27;;;17.98;;
30080;SDS011;16902;50.816;12.828;2023-07-09T19:03:47;17.88;;;16.85;;
30080;SDS011;16902;50.816;12.828;2023-07-09T19:08:49;15.90;;;15.10;;
30080;SDS011;16902;50.816;12.828;2023-07-09T19:13:50;14.95;;;14.15;;
30080;SDS011;16902;50.816;12.828;2023-07-09T19:18:53;14.60;;;14.00;;
30080;SDS011;16902;50.816;12.828;2023-07-09T19:23:55;14.85;;;14.13;;
30080;SDS011;16902;50.816;12.828;2023-07-09T19:28:57;14.52;;;13.85;;
30080;SDS011;16902;50.816;12.828;2023-07-09T19:33:59;14.60;;;13.98;;
30080;SDS011;16902;50.816;12.828;2023-07-09T19:39:00;15.13;;;14.23;;
30080;SDS011;16902;50.816;12.828;2023-07-09T19:44:02;15.57;;;14.77;;
30080;SDS011;16902;50.816;12.828;2023-07-09T19:49:04;18.77;;;17.48;;
30080;SDS011;16902;50.816;12.828;2023-07-09T19:54:13;16.88;;;15.88;;
30080;SDS011;16902;50.816;12.828;2023-07-09T19:59:17;15.13;;;14.32;;
30080;SDS011;16902;50.816;12.828;2023-07-09T20:04:19;15.55;;;14.85;;
30080;SDS011;16902;50.816;12.828;2023-07-09T20:09:20;15.20;;;14.50;;
30080;SDS011;16902;50.816;12.828;2023-07-09T20:14:23;14.80;;;14.10;;
30080;SDS011;16902;50.816;12.828;2023-07-09T20:19:24;14.07;;;13.38;;
30080;SDS011;16902;50.816;12.828;2023-07-09T20:24:27;15.55;;;14.75;;
30080;SDS011;16902;50.816;12.828;2023-07-09T20:29:28;13.88;;;13.27;;
30080;SDS011;16902;50.816;12.828;2023-07-09T20:34:30;13.93;;;13.27;;
30080;SDS011;16902;50.816;12.828;2023-07-09T20:39:32;14.82;;;14.07;;
30080;SDS011;16902;50.816;12.828;2023-07-09T20:44:35;14.35;;;13.65;;
30080;SDS011;16902;50.816;12.828;2023-07-09T20:49:38;15.23;;;14.43;;
30080;SDS011;16902;50.816;12.828;2023-07-09T20:54:40;15.13;;;14.43;;
30080;SDS011;16902;50.816;12.828;2023-07-09T20:59:42;14.68;;;13.98;;
30080;SDS011;16902;50.816;12.828;2023-07-09T21:04:45;13.32;;;12.75;;
30080;SDS011;16902;50.816;12.828;2023-07-09T21:09:49;13.20;;;12.70;;
30080;SDS011;16902;50.816;12.828;2023-07-09T21:14:52;14.43;;;13.63;;
30080;SDS011;16902;50.816;12.828;2023-07-09T21:19:54;13.65;;;13.05;;
30080;SDS011;16902;50.816;12.828;2023-07-09T21:24:57;14.07;;;13.45;;
30080;SDS011;16902;50.816;12.828;2023-07-09T21:30:16;14.85;;;14.15;;
30080;SDS011;16902;50.816;12.828;2023-07-09T21:35:24;14.07;;;13.32;;
30080;SDS011;16902;50.816;12.828;2023-07-09T21:40:32;14.07;;;13.38;;
30080;SDS011;16902;50.816;12.828;2023-07-09T21:45:37;13.93;;;13.32;;
30080;SDS011;16902;50.816;12.828;2023-07-09T21:50:42;12.95;;;12.35;;
30080;SDS011;16902;50.816;12.828;2023-07-09T21:55:44;14.73;;;14.02;;
30080;SDS011;16902;50.816;12.828;2023-07-09T22:00:46;12.75;;;12.15;;
30080;SDS011;16902;50.816;12.828;2023-07-09T22:05:57;13.63;;;13.02;;
30080;SDS011;16902;50.816;12.828;2023-07-09T22:10:59;14.18;;;13.48;;
30080;SDS011;16902;50.816;12.828;2023-07-09T22:16:01;13.15;;;12.55;;
30080;SDS011;16902;50.816;12.828;2023-07-09T22:21:04;13.73;;;13.02;;
30080;SDS011;16902;50.816;12.828;2023-07-09T22:26:06;14.52;;;13.73;;
30080;SDS011;16902;50.816;12.828;2023-07-09T22:31:08;13.63;;;12.95;;
30080;SDS011;16902;50.816;12.828;2023-07-09T22:36:14;13.85;;;13.25;;
30080;SDS011;16902;50.816;12.828;2023-07-09T22:41:16;13.27;;;12.68;;
30080;SDS011;16902;50.816;12.828;2023-07-09T22:46:26;13.63;;;13.00;;
30080;SDS011;16902;50.816;12.828;2023-07-09T22:51:28;12.85;;;12.25;;
30080;SDS011;16902;50.816;12.828;2023-07-09T22:56:34;12.13;;;11.57;;
30080;SDS011;16902;50.816;12.828;2023-07-09T23:01:36;12.50;;;12.00;;
30080;SDS011;16902;50.816;12.828;2023-07-09T23:06:38;13.30;;;12.70;;
30080;SDS011;16902;50.816;12.828;2023-07-09T23:11:41;13.75;;;13.00;;
30080;SDS011;16902;50.816;12.828;2023-07-09T23:16:45;12.98;;;12.48;;
30080;SDS011;16902;50.816;12.828;2023-07-09T23:21:47;11.38;;;10.88;;
30080;SDS011;16902;50.816;12.828;2023-07-09T23:26:50;12.50;;;11.90;;
30080;SDS011;16902;50.816;12.828;2023-07-09T23:31:54;13.40;;;12.90;;
30080;SDS011;16902;50.816;12.828;2023-07-09T23:36:56;12.80;;;12.20;;
30080;SDS011;16902;50.816;12.828;2023-07-09T23:41:57;12.23;;;11.63;;
30080;SDS011;16902;50.816;12.828;2023-07-09T23:46:59;12.35;;;11.75;;
30080;SDS011;16902;50.816;12.828;2023-07-09T23:52:04;11.98;;;11.48;;
30080;SDS011;16902;50.816;12.828;2023-07-09T23:57:11;12.65;;;12.15;;
